Time;durP1;ratioP1;P1;durP2;ratioP2;P2;SDS_P1;SDS_P2;PMS_P1;PMS_P2;Temp;Humidity;BMP_temperature;BMP_pressure;BME280_temperature;BME280_humidity;BME280_pressure;Samples;Min_cycle;Max_cycle;Signal;HPM_P1;HPM_P2
2022/05/10 00:01:39;;;;;;;6.00;5.50;;;;;;;10.80;100.00;96930.41;5051355;27;103858;-62
2022/05/10 00:04:10;;;;;;;5.97;5.47;;;;;;;10.78;100.00;96927.16;5070401;27;101769;-62
2022/05/10 00:06:40;;;;;;;6.13;5.63;;;;;;;10.79;100.00;96920.81;5052131;27;105444;-62
2022/05/10 00:09:08;;;;;;;6.20;5.60;;;;;;;10.76;100.00;96924.75;5073124;27;102698;-62
2022/05/10 00:11:36;;;;;;;6.53;5.80;;;;;;;10.77;100.00;96923.69;5070136;27;102474;-62
2022/05/10 00:14:03;;;;;;;6.67;6.07;;;;;;;10.62;100.00;96922.59;5069714;27;103294;-62
2022/05/10 00:16:30;;;;;;;6.37;5.77;;;;;;;10.73;100.00;96919.06;5051905;27;102348;-62
2022/05/10 00:18:57;;;;;;;5.40;5.00;;;;;;;10.49;100.00;96923.69;5072530;27;102553;-62
2022/05/10 00:21:25;;;;;;;6.00;5.50;;;;;;;10.34;100.00;96927.88;5072718;27;102854;-62
2022/05/10 00:23:53;;;;;;;6.63;5.70;;;;;;;10.48;100.00;96921.25;5073617;27;101862;-62
2022/05/10 00:26:20;;;;;;;6.33;5.70;;;;;;;10.33;100.00;96918.31;5073654;27;101697;-62
2022/05/10 00:28:47;;;;;;;6.57;5.87;;;;;;;10.42;100.00;96919.56;5054678;27;105736;-62
2022/05/10 00:31:16;;;;;;;6.50;6.00;;;;;;;10.11;100.00;96922.63;5077267;27;101847;-62
2022/05/10 00:33:43;;;;;;;6.20;5.70;;;;;;;10.17;100.00;96919.03;5054330;27;103930;-62
2022/05/10 00:36:11;;;;;;;6.30;5.70;;;;;;;10.17;100.00;96919.84;5073569;27;101837;-62
2022/05/10 00:38:41;;;;;;;6.40;5.80;;;;;;;10.01;100.00;96919.72;5073464;27;102407;-62
2022/05/10 00:41:17;;;;;;;5.87;5.37;;;;;;;10.21;100.00;96912.22;5071280;27;103866;-62
2022/05/10 00:43:48;;;;;;;6.63;6.03;;;;;;;10.20;100.00;96918.56;5073629;27;101711;-62
2022/05/10 00:46:21;;;;;;;6.50;5.90;;;;;;;10.20;100.00;96908.72;5054946;27;104800;-62
2022/05/10 00:48:51;;;;;;;6.07;5.47;;;;;;;10.01;100.00;96911.75;5072568;27;104245;-62
2022/05/10 00:51:23;;;;;;;6.33;5.73;;;;;;;10.00;100.00;96913.63;5071945;27;101810;-62
2022/05/10 00:54:00;;;;;;;6.37;5.70;;;;;;;9.87;100.00;96921.03;5076418;27;102430;-62
2022/05/10 00:56:35;;;;;;;6.60;5.70;;;;;;;9.89;100.00;96918.94;5072006;27;101788;-62
2022/05/10 00:59:09;;;;;;;6.17;5.60;;;;;;;9.92;100.00;96907.84;5073132;27;103551;-62
2022/05/10 01:01:39;;;;;;;5.87;5.37;;;;;;;10.02;100.00;96900.06;5072620;27;102820;-62
2022/05/10 01:04:15;;;;;;;6.83;6.13;;;;;;;10.02;100.00;96900.06;5054793;27;101914;-62
2022/05/10 01:06:50;;;;;;;7.10;6.43;;;;;;;9.90;100.00;96894.81;5073201;27;102831;-62
2022/05/10 01:09:27;;;;;;;6.93;6.30;;;;;;;9.90;100.00;96899.28;5072577;27;103009;-62
2022/05/10 01:12:01;;;;;;;7.63;6.93;;;;;;;10.04;100.00;96892.72;5072864;27;101663;-62
2022/05/10 01:14:34;;;;;;;7.23;5.83;;;;;;;9.86;100.00;96895.50;5054693;27;103640;-62
2022/05/10 01:17:01;;;;;;;6.43;5.83;;;;;;;9.85;100.00;96891.22;5075585;27;101697;-62
2022/05/10 01:19:28;;;;;;;6.27;5.67;;;;;;;9.77;100.00;96883.63;5054447;27;105500;-62
2022/05/10 01:22:06;;;;;;;6.87;6.13;;;;;;;9.78;100.00;96882.56;5072294;27;102788;-62
2022/05/10 01:25:02;;;;;;;6.17;5.57;;;;;;;9.68;100.00;96877.03;5073054;27;101686;-62
2022/05/10 01:27:42;;;;;;;6.33;5.30;;;;;;;9.55;100.00;96878.06;5054307;27;105581;-62
2022/05/10 01:30:15;;;;;;;5.23;4.73;;;;;;;9.54;100.00;96881.00;5072019;27;102648;-62
2022/05/10 01:35:40;;;;;;;5.97;5.37;;;;;;;9.39;100.00;96867.38;5072729;27;102316;-62
2022/05/10 01:38:17;;;;;;;6.00;5.50;;;;;;;9.53;100.00;96869.53;5075703;27;102828;-62
2022/05/10 01:40:50;;;;;;;5.87;5.37;;;;;;;9.52;100.00;96872.44;5072929;27;101636;-62
2022/05/10 01:43:22;;;;;;;5.97;5.47;;;;;;;9.42;100.00;96867.69;5071964;27;102542;-62
2022/05/10 01:45:54;;;;;;;6.00;5.40;;;;;;;9.52;100.00;96859.16;5072735;27;101955;-62
2022/05/10 01:48:23;;;;;;;7.33;5.90;;;;;;;9.44;100.00;96862.16;5072693;27;102355;-62
2022/05/10 01:50:56;;;;;;;7.13;6.10;;;;;;;9.35;100.00;96866.19;5053357;27;104334;-62
2022/05/10 01:53:31;;;;;;;6.40;5.80;;;;;;;9.42;100.00;96862.41;5053747;27;101892;-62
2022/05/10 01:56:03;;;;;;;6.53;5.50;;;;;;;9.21;100.00;96859.53;5072556;27;102535;-62
2022/05/10 01:58:32;;;;;;;7.93;5.80;;;;;;;9.32;100.00;96859.50;5072034;27;102637;-62
2022/05/10 02:01:02;;;;;;;6.07;5.53;;;;;;;9.25;100.00;96853.50;5075482;27;101832;-62
2022/05/10 02:03:34;;;;;;;5.93;5.33;;;;;;;9.35;100.00;96859.06;5053015;27;105856;-62
2022/05/10 02:06:10;;;;;;;6.70;6.07;;;;;;;9.42;100.00;96861.56;5072279;27;101739;-62
2022/05/10 02:08:43;;;;;;;5.30;4.90;;;;;;;9.27;100.00;96861.25;5070940;27;104553;-62
2022/05/10 02:11:13;;;;;;;5.93;5.30;;;;;;;9.22;100.00;96861.91;5071521;27;102588;-62
2022/05/10 02:13:47;;;;;;;5.30;4.80;;;;;;;9.13;100.00;96865.97;5053461;27;101824;-62
2022/05/10 02:16:22;;;;;;;6.10;5.60;;;;;;;9.09;100.00;96866.63;5072348;27;101711;-62
2022/05/10 02:18:55;;;;;;;5.83;5.30;;;;;;;9.00;100.00;96873.34;5071501;27;103367;-62
2022/05/10 02:21:28;;;;;;;5.90;5.30;;;;;;;9.06;100.00;96867.91;5071816;27;101897;-62
2022/05/10 02:24:02;;;;;;;6.20;5.70;;;;;;;9.04;100.00;96877.94;5055663;27;103681;-62
2022/05/10 02:26:35;;;;;;;5.80;5.37;;;;;;;9.15;100.00;96876.34;5070430;27;101912;-62
2022/05/10 02:29:09;;;;;;;6.83;6.07;;;;;;;9.25;100.00;96874.75;5072033;27;102929;-62
2022/05/10 02:34:34;;;;;;;6.50;5.93;;;;;;;9.30;100.00;96874.88;5070636;27;102133;-62
2022/05/10 02:37:01;;;;;;;6.50;5.73;;;;;;;9.21;100.00;96875.44;5071898;27;102912;-62
2022/05/10 02:39:28;;;;;;;6.43;5.83;;;;;;;9.25;100.00;96877.41;5070905;27;103166;-62
2022/05/10 02:41:55;;;;;;;5.90;5.40;;;;;;;9.19;100.00;96877.50;5070717;27;101960;-62
2022/05/10 02:44:23;;;;;;;6.90;6.17;;;;;;;9.17;100.00;96872.41;5071428;27;103633;-62
2022/05/10 02:46:52;;;;;;;6.83;6.23;;;;;;;9.22;100.00;96872.53;5074032;27;103048;-62
2022/05/10 02:49:19;;;;;;;6.00;5.50;;;;;;;9.13;100.00;96876.59;5052902;27;104871;-62
2022/05/10 02:51:46;;;;;;;6.63;5.97;;;;;;;9.05;100.00;96876.91;5052208;27;105290;-62
2022/05/10 02:54:13;;;;;;;5.80;5.30;;;;;;;8.99;100.00;96872.50;5071633;27;101849;-62
2022/05/10 02:56:41;;;;;;;5.57;5.10;;;;;;;8.90;100.00;96875.72;5071531;27;102776;-62
2022/05/10 02:59:15;;;;;;;6.47;5.60;;;;;;;8.88;100.00;96880.47;5069514;27;102674;-62
2022/05/10 03:01:50;;;;;;;5.87;5.37;;;;;;;8.84;100.00;96882.75;5052412;27;101774;-62
2022/05/10 03:04:19;;;;;;;6.97;6.23;;;;;;;8.95;100.00;96889.13;5052826;27;106115;-62
2022/05/10 03:06:47;;;;;;;6.30;5.40;;;;;;;8.96;100.00;96885.44;5070479;27;102614;-62
2022/05/10 03:09:15;;;;;;;6.60;6.10;;;;;;;8.95;100.00;96883.81;5056182;27;101881;-62
2022/05/10 03:11:44;;;;;;;7.20;5.97;;;;;;;8.97;100.00;96879.09;5051831;27;105848;-62
2022/05/10 03:14:12;;;;;;;5.23;4.83;;;;;;;8.96;100.00;96883.59;5069747;27;101889;-62
2022/05/10 03:16:40;;;;;;;6.17;5.67;;;;;;;8.79;100.00;96881.81;5069431;27;104801;-62
2022/05/10 03:19:07;;;;;;;5.87;5.37;;;;;;;8.81;100.00;96887.69;5070793;27;102651;-62
2022/05/10 03:21:38;;;;;;;6.73;5.20;;;;;;;8.85;100.00;96891.53;5070720;27;101954;-62
2022/05/10 03:24:06;;;;;;;5.57;5.10;;;;;;;8.76;100.00;96891.03;5071010;27;102399;-62
2022/05/10 03:26:34;;;;;;;5.43;5.03;;;;;;;8.79;100.00;96897.72;5051851;27;105779;-62
2022/05/10 03:29:01;;;;;;;5.60;5.20;;;;;;;8.75;100.00;96896.56;5074445;27;101651;-62
2022/05/10 03:31:29;;;;;;;6.30;5.70;;;;;;;8.82;100.00;96897.25;5070351;27;103228;-62
2022/05/10 03:36:42;;;;;;;5.97;5.37;;;;;;;8.82;100.00;96898.09;5069414;27;105143;-62
2022/05/10 03:39:10;;;;;;;6.83;5.27;;;;;;;8.75;100.00;96896.56;5051730;27;104393;-62
2022/05/10 03:41:37;;;;;;;5.93;5.33;;;;;;;8.62;100.00;96891.47;5052262;27;102010;-62
2022/05/10 03:44:05;;;;;;;5.23;4.83;;;;;;;8.36;100.00;96897.13;5071013;27;102323;-62
2022/05/10 03:46:32;;;;;;;5.40;4.93;;;;;;;8.45;100.00;96901.09;5069095;27;102947;-62
2022/05/10 03:48:59;;;;;;;4.83;4.43;;;;;;;8.44;100.00;96907.38;5051785;27;101822;-62
2022/05/10 03:51:26;;;;;;;6.50;5.10;;;;;;;8.38;100.00;96902.97;5073309;27;102804;-62
2022/05/10 03:53:54;;;;;;;5.10;4.60;;;;;;;8.44;100.00;96912.69;5073987;27;101825;-62
2022/05/10 03:56:21;;;;;;;5.83;5.20;;;;;;;8.46;100.00;96914.09;5074188;27;102988;-62
2022/05/10 03:58:48;;;;;;;5.83;5.33;;;;;;;8.51;100.00;96910.78;5073189;27;102693;-62
2022/05/10 04:01:18;;;;;;;6.73;6.03;;;;;;;8.63;100.00;96920.41;5074051;27;101905;-62
2022/05/10 04:03:46;;;;;;;6.73;5.43;;;;;;;8.50;100.00;96917.13;5073839;27;103689;-62
2022/05/10 04:06:13;;;;;;;6.60;5.40;;;;;;;8.57;100.00;96920.47;5073181;27;103127;-62
2022/05/10 04:08:40;;;;;;;6.13;5.30;;;;;;;8.59;100.00;96921.06;5055404;27;101846;-62
2022/05/10 04:11:10;;;;;;;5.57;5.07;;;;;;;8.62;100.00;96923.28;5073821;27;102409;-62
2022/05/10 04:13:38;;;;;;;6.07;5.40;;;;;;;8.43;100.00;96919.03;5076121;27;104389;-62
2022/05/10 04:16:05;;;;;;;5.47;4.97;;;;;;;8.51;100.00;96921.38;5073393;27;102305;-62
2022/05/10 04:18:33;;;;;;;5.73;4.70;;;;;;;8.47;100.00;96923.69;5054711;27;105290;-62
2022/05/10 04:21:00;;;;;;;5.87;5.27;;;;;;;8.55;100.00;96917.22;5055027;27;101901;-62
2022/05/10 04:23:27;;;;;;;5.97;5.17;;;;;;;8.67;100.00;96924.19;5039396;27;105452;-62
2022/05/10 04:25:54;;;;;;;5.83;5.30;;;;;;;8.85;100.00;96921.50;5030948;28;105449;-62
2022/05/10 04:28:23;;;;;;;6.00;5.50;;;;;;;9.04;100.00;96923.03;5032881;28;102043;-62
2022/05/10 04:30:50;;;;;;;6.43;5.77;;;;;;;9.07;100.00;96927.91;5031517;28;105588;-62
2022/05/10 04:33:18;;;;;;;5.53;5.07;;;;;;;9.19;100.00;96923.44;5031173;28;103986;-62
2022/05/10 04:35:47;;;;;;;9.83;5.87;;;;;;;9.19;100.00;96925.25;5035130;28;101911;-62
2022/05/10 04:38:14;;;;;;;6.73;5.50;;;;;;;9.31;100.00;96926.09;5030782;28;104999;-62
2022/05/10 04:43:26;;;;;;;7.13;6.43;;;;;;;9.55;100.00;96938.34;5032595;28;102426;-62
2022/05/10 04:45:53;;;;;;;6.93;6.23;;;;;;;9.65;100.00;96947.34;5031831;28;102534;-62
2022/05/10 04:48:20;;;;;;;7.20;6.50;;;;;;;9.67;100.00;96947.13;5031346;28;102035;-62
2022/05/10 04:50:48;;;;;;;7.00;6.27;;;;;;;9.90;100.00;96944.44;5030939;28;105997;-62
2022/05/10 04:53:16;;;;;;;7.23;6.50;;;;;;;10.05;100.00;96940.34;5032106;28;102632;-62
2022/05/10 04:55:42;;;;;;;6.83;6.23;;;;;;;10.25;100.00;96942.59;5030989;28;102070;-62
2022/05/10 04:58:10;;;;;;;6.63;6.03;;;;;;;10.41;100.00;96944.53;5033812;28;105712;-62
2022/05/10 05:00:38;;;;;;;7.27;6.57;;;;;;;10.55;100.00;96935.22;5030586;28;102192;-62
2022/05/10 05:03:04;;;;;;;7.77;6.73;;;;;;;10.67;100.00;96941.31;5031124;27;105526;-62
2022/05/10 05:05:32;;;;;;;6.13;5.63;;;;;;;10.76;100.00;96939.88;5029700;28;105796;-62
2022/05/10 05:07:59;;;;;;;7.13;6.33;;;;;;;10.98;100.00;96938.16;5031102;28;102017;-62
2022/05/10 05:10:26;;;;;;;6.80;5.97;;;;;;;11.12;100.00;96947.47;5031091;28;105526;-62
2022/05/10 05:12:53;;;;;;;6.90;6.23;;;;;;;11.38;100.00;96945.00;5030155;28;105181;-62
2022/05/10 05:15:20;;;;;;;7.17;6.47;;;;;;;11.56;100.00;96946.63;5030818;28;101975;-62
2022/05/10 05:17:48;;;;;;;6.80;6.10;;;;;;;11.71;100.00;96936.19;5031007;28;105842;-62
2022/05/10 05:20:15;;;;;;;6.10;5.60;;;;;;;11.78;100.00;96934.19;5034675;28;102620;-62
2022/05/10 05:22:46;;;;;;;6.60;5.80;;;;;;;11.70;100.00;96935.41;5043968;27;102901;-62
2022/05/10 05:25:13;;;;;;;6.57;4.97;;;;;;;11.66;100.00;96941.47;5071990;27;102544;-62
2022/05/10 05:27:40;;;;;;;5.87;5.27;;;;;;;11.77;100.00;96937.91;5072249;27;101911;-62
2022/05/10 05:30:08;;;;;;;5.53;5.03;;;;;;;11.81;100.00;96933.69;5072746;27;102256;-62
2022/05/10 05:32:36;;;;;;;5.47;4.97;;;;;;;12.11;100.00;96934.13;5053682;27;105328;-62
2022/05/10 05:35:06;;;;;;;5.63;5.10;;;;;;;12.37;100.00;96938.75;5053872;27;101945;-62
2022/05/10 05:37:37;;;;;;;5.80;5.30;;;;;;;12.56;100.00;96926.69;5054139;27;103524;-62
2022/05/10 05:40:08;;;;;;;5.90;5.30;;;;;;;12.70;100.00;96927.94;5075431;27;101765;-62
2022/05/10 05:42:35;;;;;;;5.70;4.83;;;;;;;12.95;100.00;96936.19;5072592;27;102864;-62
2022/05/10 05:45:02;;;;;;;5.77;4.90;;;;;;;13.07;100.00;96928.84;5071851;27;102745;-62
2022/05/10 05:47:29;;;;;;;4.73;4.23;;;;;;;13.18;100.00;96923.38;5053774;27;101913;-62
2022/05/10 05:49:58;;;;;;;6.13;4.50;;;;;;;13.11;100.00;96919.28;5072449;27;102264;-62
2022/05/10 05:52:27;;;;;;;6.83;5.00;;;;;;;13.37;100.00;96919.28;5071429;27;102751;-62
2022/05/10 05:54:55;;;;;;;5.77;5.17;;;;;;;13.54;100.00;96919.13;5054285;27;102215;-62
2022/05/10 05:57:22;;;;;;;5.13;4.63;;;;;;;13.59;100.00;96911.16;5071988;27;102460;-62
2022/05/10 05:59:53;;;;;;;5.53;5.00;;;;;;;13.85;100.00;96905.72;5071625;27;101752;-62
2022/05/10 06:02:22;;;;;;;5.93;5.33;;;;;;;13.93;100.00;96912.44;5075785;27;101804;-62
2022/05/10 06:04:49;;;;;;;5.60;5.03;;;;;;;13.98;100.00;96904.47;5053168;27;105677;-62
2022/05/10 06:07:16;;;;;;;5.47;5.07;;;;;;;14.04;100.00;96898.88;5053451;27;101971;-62
2022/05/10 06:09:47;;;;;;;7.53;4.93;;;;;;;14.17;100.00;96902.97;5053706;27;104095;-62
2022/05/10 06:12:17;;;;;;;5.90;5.30;;;;;;;14.38;100.00;96894.00;5052671;27;104077;-62
2022/05/10 06:14:45;;;;;;;5.57;5.07;;;;;;;14.58;100.00;96896.75;5071801;27;101751;-62
2022/05/10 06:17:14;;;;;;;5.77;5.27;;;;;;;14.80;100.00;96902.69;5052394;27;106215;-62
2022/05/10 06:19:42;;;;;;;5.47;4.97;;;;;;;14.76;100.00;96896.25;5052388;27;105342;-62
2022/05/10 06:22:11;;;;;;;6.30;5.43;;;;;;;14.83;100.00;96905.63;5052955;27;101918;-62
2022/05/10 06:24:39;;;;;;;5.53;5.03;;;;;;;14.85;100.00;96906.19;5055854;27;105332;-62
2022/05/10 06:27:11;;;;;;;5.57;4.97;;;;;;;15.04;100.00;96904.63;5071842;27;102046;-62
2022/05/10 06:29:38;;;;;;;6.53;5.30;;;;;;;15.26;100.00;96899.03;5053375;27;106997;-62
2022/05/10 06:32:06;;;;;;;6.30;4.83;;;;;;;15.26;100.00;96896.34;5071302;27;102785;-62
2022/05/10 06:34:33;;;;;;;5.10;4.60;;;;;;;15.43;100.00;96895.03;5071922;27;101730;-62
2022/05/10 06:36:59;;;;;;;5.03;4.63;;;;;;;15.60;100.00;96894.75;5053139;27;106232;-62
2022/05/10 06:39:27;;;;;;;8.70;4.90;;;;;;;15.63;100.00;96888.84;5052260;27;105104;-62
2022/05/10 06:41:54;;;;;;;5.80;5.30;;;;;;;15.83;100.00;96895.00;5052825;27;101862;-62
2022/05/10 06:44:25;;;;;;;5.30;4.80;;;;;;;16.02;100.00;96889.88;5071481;27;102530;-62
2022/05/10 06:46:52;;;;;;;6.60;4.83;;;;;;;16.07;100.00;96898.72;5055826;27;104293;-62
2022/05/10 06:49:19;;;;;;;6.43;5.27;;;;;;;16.01;100.00;96898.97;5052902;27;105136;-62
2022/05/10 06:51:46;;;;;;;8.97;5.73;;;;;;;16.00;100.00;96894.69;5070802;27;102953;-62
2022/05/10 06:54:13;;;;;;;9.87;6.00;;;;;;;16.13;100.00;96900.28;5052494;27;101870;-62
2022/05/10 06:56:40;;;;;;;4.40;3.70;;;;;;;16.28;100.00;96888.72;5052858;27;105252;-62
2022/05/10 06:59:07;;;;;;;4.20;3.73;;;;;;;16.51;100.00;96888.91;5052449;27;105035;-62
2022/05/10 07:01:36;;;;;;;3.43;3.03;;;;;;;16.52;100.00;96889.72;5052609;27;101858;-62
2022/05/10 07:04:03;;;;;;;3.60;3.30;;;;;;;16.59;100.00;96884.88;5052778;27;105556;-62
2022/05/10 07:06:31;;;;;;;3.50;3.17;;;;;;;16.78;100.00;96885.84;5052211;27;106102;-62
2022/05/10 07:08:57;;;;;;;4.67;3.50;;;;;;;16.90;100.00;96884.41;5055987;27;101973;-62
2022/05/10 07:11:24;;;;;;;3.63;3.30;;;;;;;16.97;100.00;96884.13;5070646;27;102871;-62
2022/05/10 07:13:51;;;;;;;4.73;3.50;;;;;;;17.19;100.00;96885.31;5052596;27;102061;-62
2022/05/10 07:16:18;;;;;;;4.33;3.10;;;;;;;17.40;100.00;96883.31;5052538;27;105378;-62
2022/05/10 07:18:46;;;;;;;3.97;3.13;;;;;;;17.45;100.00;96883.25;5051786;27;105457;-62
2022/05/10 07:21:14;;;;;;;3.57;3.27;;;;;;;17.48;100.00;96883.50;5052254;27;101888;-62
2022/05/10 07:23:40;;;;;;;10.67;3.40;;;;;;;17.41;100.00;96884.91;5051736;27;105094;-62
2022/05/10 07:26:07;;;;;;;4.30;3.23;;;;;;;17.75;100.00;96882.97;5051743;27;105315;-62
2022/05/10 07:28:34;;;;;;;3.77;2.77;;;;;;;17.75;100.00;96875.72;5052077;27;101905;-62
2022/05/10 07:31:02;;;;;;;3.40;3.10;;;;;;;17.94;100.00;96883.88;5073506;27;102825;-62
2022/05/10 07:33:29;;;;;;;3.37;3.07;;;;;;;18.04;100.00;96883.78;5071128;27;101884;-62
2022/05/10 07:38:44;;;;;;;4.03;3.07;;;;;;;18.52;100.00;96875.44;5051553;27;104882;-62
2022/05/10 07:41:12;;;;;;;3.53;3.10;;;;;;;18.70;100.00;96884.66;5070433;27;101852;-62
2022/05/10 07:43:41;;;;;;;4.83;3.07;;;;;;;18.84;100.00;96872.06;5070915;27;102409;-62
2022/05/10 07:46:09;;;;;;;2.97;2.67;;;;;;;18.80;100.00;96879.91;5070038;27;102817;-62
2022/05/10 07:48:36;;;;;;;3.97;2.97;;;;;;;19.08;100.00;96870.88;5052103;27;101931;-62
2022/05/10 07:51:05;;;;;;;3.50;3.20;;;;;;;19.19;100.00;96871.56;5054810;27;105568;-62
2022/05/10 07:53:32;;;;;;;3.60;3.23;;;;;;;19.36;100.00;96874.56;5070539;27;101904;-62
2022/05/10 07:56:01;;;;;;;3.73;2.80;;;;;;;19.66;100.00;96871.34;5070353;27;102570;-62
2022/05/10 07:58:28;;;;;;;3.37;3.00;;;;;;;19.86;100.00;96868.31;5069995;27;102778;-62
2022/05/10 08:00:55;;;;;;;4.17;3.50;;;;;;;19.82;100.00;96856.50;5070382;27;101873;-62
2022/05/10 08:03:24;;;;;;;3.87;3.30;;;;;;;20.03;100.00;96863.13;5052060;27;105666;-62
2022/05/10 08:05:52;;;;;;;4.47;3.23;;;;;;;20.18;100.00;96854.78;5051470;27;104226;-62
2022/05/10 08:08:20;;;;;;;5.20;3.27;;;;;;;20.28;100.00;96857.28;5070396;27;102069;-62
2022/05/10 08:10:49;;;;;;;3.20;2.90;;;;;;;20.40;100.00;96852.19;5070369;27;102481;-62
2022/05/10 08:13:18;;;;;;;4.27;3.07;;;;;;;20.61;100.00;96851.44;5073271;27;102827;-62
2022/05/10 08:15:45;;;;;;;4.17;3.30;;;;;;;20.65;100.00;96860.56;5070213;27;102754;-62
2022/05/10 08:18:13;;;;;;;4.07;3.00;;;;;;;20.77;100.00;96851.94;5069691;27;102629;-62
2022/05/10 08:20:41;;;;;;;4.00;3.60;;;;;;;20.89;100.00;96850.34;5051693;27;102032;-62
2022/05/10 08:23:11;;;;;;;4.23;3.03;;;;;;;21.09;100.00;96840.97;5051232;27;107368;-62
2022/05/10 08:25:39;;;;;;;4.77;3.80;;;;;;;20.75;100.00;96846.03;5033944;27;106255;-62
2022/05/10 08:28:10;;;;;;;4.63;3.33;;;;;;;20.58;100.00;96846.66;5051571;27;101944;-62
2022/05/10 08:30:37;;;;;;;3.80;3.50;;;;;;;20.12;100.00;96839.78;5051670;27;105217;-62
2022/05/10 08:33:04;;;;;;;4.37;3.17;;;;;;;20.53;100.00;96843.25;5069380;27;102577;-62
2022/05/10 08:35:31;;;;;;;3.93;3.50;;;;;;;20.83;100.00;96848.00;5073536;27;101939;-62
2022/05/10 08:37:58;;;;;;;4.10;3.40;;;;;;;21.01;100.00;96838.97;5050888;27;105351;-62
2022/05/10 08:40:29;;;;;;;3.60;3.30;;;;;;;20.11;100.00;96840.88;5072614;27;101704;-62
2022/05/10 08:43:02;;;;;;;4.43;3.60;;;;;;;19.67;100.00;96846.78;5073286;27;102550;-62
2022/05/10 08:45:30;;;;;;;3.63;3.30;;;;;;;19.62;100.00;96840.69;5054132;27;105351;-62
2022/05/10 08:47:57;;;;;;;3.67;3.33;;;;;;;20.15;100.00;96845.38;5073555;27;102054;-62
2022/05/10 08:50:26;;;;;;;3.80;3.40;;;;;;;20.89;100.00;96841.41;5054813;27;105320;-62
2022/05/10 08:52:52;;;;;;;3.33;3.07;;;;;;;21.40;100.00;96842.66;5037317;27;105518;-62
2022/05/10 08:55:24;;;;;;;4.70;3.37;;;;;;;21.40;100.00;96841.84;5072960;27;101734;-62
2022/05/10 08:57:54;;;;;;;6.07;3.33;;;;;;;21.33;100.00;96841.47;5057642;27;105333;-62
2022/05/10 09:00:31;;;;;;;3.30;3.00;;;;;;;21.67;100.00;96841.69;5073299;27;101997;-62
2022/05/10 09:03:02;;;;;;;3.80;3.23;;;;;;;21.52;100.00;96842.88;5073405;27;102841;-62
2022/05/10 09:05:38;;;;;;;4.30;3.07;;;;;;;21.22;100.00;96830.09;5072190;27;102913;-62
2022/05/10 09:08:09;;;;;;;2.87;2.67;;;;;;;21.33;100.00;96830.66;5072912;27;101750;-62
2022/05/10 09:10:41;;;;;;;3.00;2.70;;;;;;;21.36;100.00;96832.75;5072665;27;104029;-62
2022/05/10 09:13:13;;;;;;;3.40;3.10;;;;;;;21.99;100.00;96834.13;5072647;27;102607;-62
2022/05/10 09:15:45;;;;;;;4.87;2.90;;;;;;;21.82;98.36;96827.81;5054348;27;101840;-62
2022/05/10 09:18:20;;;;;;;4.43;2.87;;;;;;;21.60;100.00;96825.09;5054197;27;105295;-62
2022/05/10 09:20:54;;;;;;;3.53;2.77;;;;;;;22.12;100.00;96821.59;5056936;27;105844;-62
2022/05/10 09:23:30;;;;;;;2.90;2.70;;;;;;;22.24;87.50;96819.06;5053849;27;105197;-62
2022/05/10 09:25:58;;;;;;;5.53;2.97;;;;;;;22.65;98.72;96820.34;5053593;27;105138;-62
2022/05/10 09:28:36;;;;;;;2.83;2.43;;;;;;;23.19;99.56;96818.97;5053964;27;101957;-62
2022/05/10 09:37:13;;;;;;;3.93;2.73;;;;;;;22.60;83.26;96806.91;5054123;27;101807;-62
2022/05/10 09:39:50;;;;;;;3.13;2.80;;;;;;;22.25;89.46;96809.84;5072686;27;102330;-62
2022/05/10 09:42:28;;;;;;;3.37;2.70;;;;;;;22.44;84.32;96818.50;5053214;27;105737;-62
2022/05/10 09:45:00;;;;;;;3.23;2.53;;;;;;;21.81;87.50;96809.97;5076165;27;101714;-62
2022/05/10 09:47:29;;;;;;;2.73;2.53;;;;;;;22.98;90.13;96807.13;5071848;27;102461;-62
2022/05/10 09:50:12;;;;;;;2.67;2.47;;;;;;;23.50;74.67;96809.53;5053736;27;102121;-62
2022/05/10 09:52:39;;;;;;;3.93;2.67;;;;;;;23.65;67.96;96810.94;5072463;27;102484;-62
2022/05/10 09:55:09;;;;;;;2.57;2.37;;;;;;;23.36;74.60;96802.66;5072004;27;103072;-62
2022/05/10 09:57:38;;;;;;;4.17;2.30;;;;;;;22.32;73.89;96810.16;5072025;27;101820;-62
2022/05/10 10:00:07;;;;;;;2.73;2.53;;;;;;;23.04;75.57;96798.50;5072044;27;102378;-62
2022/05/10 10:02:44;;;;;;;2.60;2.40;;;;;;;22.78;71.37;96811.25;5068305;27;102326;-62
2022/05/10 10:05:27;;;;;;;3.00;2.30;;;;;;;23.10;89.75;96797.22;5075580;27;101726;-62
2022/05/10 10:07:57;;;;;;;2.87;2.57;;;;;;;23.76;73.37;96806.75;5052652;27;104257;-62
2022/05/10 10:10:27;;;;;;;2.80;2.07;;;;;;;23.08;59.60;96801.38;5053380;27;102681;-62
2022/05/10 10:12:54;;;;;;;2.87;2.13;;;;;;;23.58;61.87;96799.75;5072058;27;102052;-62
2022/05/10 10:15:25;;;;;;;3.70;2.20;;;;;;;23.59;56.68;96801.38;5052478;27;105753;-62
2022/05/10 10:17:55;;;;;;;2.63;2.40;;;;;;;23.72;62.17;96800.38;5071765;27;101810;-62
2022/05/10 10:20:33;;;;;;;2.87;2.20;;;;;;;23.86;59.61;96788.16;5071822;27;102454;-62
2022/05/10 10:23:03;;;;;;;3.57;2.30;;;;;;;23.92;59.99;96791.56;5070891;27;102999;-62
2022/05/10 10:25:35;;;;;;;3.57;2.30;;;;;;;24.11;64.31;96791.94;5071757;27;101678;-62
2022/05/10 10:28:16;;;;;;;2.40;2.17;;;;;;;23.91;63.21;96787.22;5074755;27;102428;-62
2022/05/10 10:30:49;;;;;;;3.33;2.50;;;;;;;24.62;68.42;96787.06;5071712;27;101709;-62
2022/05/10 10:33:27;;;;;;;3.50;2.60;;;;;;;24.25;77.96;96781.66;5053052;27;104137;-62
2022/05/10 10:35:59;;;;;;;2.80;2.50;;;;;;;24.04;67.64;96780.78;5071360;27;102535;-62
2022/05/10 10:38:32;;;;;;;2.50;2.30;;;;;;;24.03;61.38;96777.25;5071654;27;102223;-62
2022/05/10 10:41:05;;;;;;;2.97;2.30;;;;;;;23.89;62.91;96773.97;5071452;27;102724;-62
2022/05/10 10:43:39;;;;;;;2.40;2.20;;;;;;;24.12;55.81;96769.88;5071005;27;102638;-62
2022/05/10 10:46:17;;;;;;;3.70;2.40;;;;;;;23.88;60.52;96777.00;5071574;27;102358;-62
2022/05/10 10:48:49;;;;;;;2.60;2.40;;;;;;;23.75;70.83;96767.91;5071697;27;102535;-62
2022/05/10 10:51:17;;;;;;;5.23;2.70;;;;;;;24.36;61.06;96761.13;5074270;27;102878;-62
2022/05/10 10:53:46;;;;;;;3.90;2.70;;;;;;;24.93;61.65;96765.72;5053284;27;102361;-62
2022/05/10 10:56:29;;;;;;;2.50;2.30;;;;;;;24.54;71.85;96757.97;5070816;27;102746;-62
2022/05/10 10:59:12;;;;;;;3.43;2.30;;;;;;;23.93;55.75;96763.25;5071300;27;102097;-62
2022/05/10 11:02:02;;;;;;;2.83;2.43;;;;;;;24.39;56.08;96763.97;5070581;27;102560;-62
2022/05/10 11:04:48;;;;;;;2.60;2.40;;;;;;;24.27;58.09;96760.38;5035262;27;105826;-62
2022/05/10 11:07:24;;;;;;;2.17;2.07;;;;;;;24.80;54.82;96755.09;5071448;27;101681;-62
2022/05/10 11:09:58;;;;;;;3.20;2.30;;;;;;;24.05;53.25;96752.50;5071183;27;101812;-62
2022/05/10 11:12:45;;;;;;;2.73;2.23;;;;;;;23.55;52.85;96754.25;5070448;27;102623;-62
2022/05/10 11:15:25;;;;;;;2.43;2.23;;;;;;;23.66;51.07;96747.34;5074607;27;101720;-62
2022/05/10 11:18:04;;;;;;;2.67;2.33;;;;;;;23.81;49.42;96742.16;5051885;27;104013;-62
2022/05/10 11:20:45;;;;;;;3.80;2.43;;;;;;;24.30;49.62;96738.75;5036014;27;101799;-62
2022/05/10 11:23:24;;;;;;;2.60;2.13;;;;;;;25.33;49.03;96749.72;5051722;27;103816;-62
2022/05/10 11:26:03;;;;;;;4.33;2.20;;;;;;;25.44;45.53;96737.25;5051845;27;105411;-62
2022/05/10 11:28:55;;;;;;;2.27;1.90;;;;;;;26.00;47.34;96747.38;5052593;27;101825;-62
2022/05/10 11:31:34;;;;;;;2.00;1.80;;;;;;;26.06;44.83;96744.09;5052356;27;104845;-62
2022/05/10 11:34:15;;;;;;;3.13;2.00;;;;;;;25.39;41.86;96740.97;5070523;27;102595;-62
2022/05/10 11:36:47;;;;;;;2.50;1.77;;;;;;;26.10;42.58;96720.44;5070988;27;101715;-62
2022/05/10 11:39:44;;;;;;;2.10;2.00;;;;;;;26.45;45.19;96726.22;5054924;27;103684;-62
2022/05/10 11:42:24;;;;;;;2.30;2.10;;;;;;;25.84;44.46;96735.50;5052307;27;101774;-62
2022/05/10 11:45:29;;;;;;;2.93;2.30;;;;;;;25.62;43.30;96719.59;5070409;27;102335;-62
2022/05/10 11:48:17;;;;;;;2.40;2.03;;;;;;;25.81;42.88;96717.09;5048839;27;103564;-62
2022/05/10 11:54:30;;;;;;;2.13;1.93;;;;;;;25.16;42.11;96723.41;5070506;27;101906;-62
2022/05/10 11:56:58;;;;;;;2.90;2.40;;;;;;;25.34;43.63;96715.91;5062649;27;102805;-62
2022/05/10 11:59:27;;;;;;;2.60;2.13;;;;;;;25.40;45.31;96706.38;5051888;27;102192;-62
2022/05/10 12:01:56;;;;;;;2.97;2.00;;;;;;;25.37;43.20;96709.75;5052019;27;104193;-62